Time;durP1;ratioP1;P1;durP2;ratioP2;P2;SDS_P1;SDS_P2;PMS_P1;PMS_P2;Temp;Humidity;BMP_temperature;BMP_pressure;BME280_temperature;BME280_humidity;BME280_pressure;Samples;Min_cycle;Max_cycle;Signal;HPM_P1;HPM_P2
2022/07/18 00:00:41;;;;;;;10.90;10.60;;;16.50;99.90;;;;;;5082824;28;20245;-83
2022/07/18 00:03:09;;;;;;;10.63;10.32;;;16.50;99.90;;;;;;5082714;28;20230;-82
2022/07/18 00:05:39;;;;;;;10.82;10.52;;;16.50;99.90;;;;;;5082183;28;20277;-82
2022/07/18 00:08:14;;;;;;;10.85;10.55;;;16.50;99.90;;;;;;5082304;28;20277;-83
2022/07/18 00:10:42;;;;;;;10.70;10.40;;;16.40;99.90;;;;;;5082891;28;20226;-82
2022/07/18 00:13:11;;;;;;;10.70;10.40;;;16.40;99.90;;;;;;5082878;28;20226;-82
2022/07/18 00:15:40;;;;;;;10.73;10.43;;;16.30;99.90;;;;;;5086860;28;20266;-83
2022/07/18 00:18:09;;;;;;;10.68;10.38;;;16.30;99.90;;;;;;5086628;28;20218;-82
2022/07/18 00:20:37;;;;;;;10.60;10.30;;;16.20;99.90;;;;;;5087746;28;20230;-82
2022/07/18 00:23:04;;;;;;;10.73;10.43;;;16.20;99.90;;;;;;5089235;28;20298;-83
2022/07/18 00:25:32;;;;;;;10.70;10.40;;;16.20;99.90;;;;;;5091790;28;20233;-83
2022/07/18 00:28:00;;;;;;;10.75;10.45;;;16.10;99.90;;;;;;5100002;28;20223;-83
2022/07/18 00:30:28;;;;;;;10.70;10.40;;;16.10;99.90;;;;;;5101779;28;20230;-83
2022/07/18 00:32:57;;;;;;;10.93;10.63;;;16.00;99.90;;;;;;5102093;28;20209;-83
2022/07/18 00:35:25;;;;;;;10.85;10.55;;;16.00;99.90;;;;;;5101583;28;20214;-83
2022/07/18 00:37:52;;;;;;;10.70;10.40;;;16.00;99.90;;;;;;5101339;28;20217;-83
2022/07/18 00:40:20;;;;;;;10.80;10.50;;;15.90;99.90;;;;;;5101959;28;20206;-82
2022/07/18 00:42:48;;;;;;;10.93;10.63;;;15.90;99.90;;;;;;5102404;28;20230;-83
2022/07/18 00:45:16;;;;;;;10.75;10.45;;;15.80;99.90;;;;;;5100038;28;20237;-83
2022/07/18 00:47:43;;;;;;;10.98;10.68;;;15.50;99.90;;;;;;5097313;28;20221;-82
2022/07/18 00:50:13;;;;;;;10.80;10.50;;;15.30;99.90;;;;;;5100876;28;20210;-83
2022/07/18 00:52:41;;;;;;;10.93;10.63;;;15.30;99.90;;;;;;5101070;28;20260;-83
2022/07/18 00:55:15;;;;;;;10.90;10.60;;;15.20;99.90;;;;;;5097340;28;20257;-82
2022/07/18 00:57:46;;;;;;;10.80;10.50;;;15.20;99.90;;;;;;5083607;28;20230;-82
2022/07/18 01:03:01;;;;;;;10.65;10.35;;;15.30;99.90;;;;;;5083689;28;20226;-82
2022/07/18 01:05:30;;;;;;;10.75;10.45;;;15.30;99.90;;;;;;5082457;28;20273;-83
2022/07/18 01:07:58;;;;;;;10.80;10.50;;;15.30;99.90;;;;;;5082147;28;20250;-83
2022/07/18 01:10:26;;;;;;;10.52;10.23;;;15.40;99.90;;;;;;5082007;28;20242;-83
2022/07/18 01:12:53;;;;;;;10.70;10.40;;;15.40;99.90;;;;;;5081722;28;20288;-82
2022/07/18 01:15:21;;;;;;;10.82;10.52;;;15.40;99.90;;;;;;5081764;28;20238;-83
2022/07/18 01:17:49;;;;;;;10.73;10.43;;;15.40;99.90;;;;;;5082179;28;20229;-82
2022/07/18 01:20:17;;;;;;;11.10;10.80;;;15.40;99.90;;;;;;5107444;22;20238;-80
2022/07/18 01:22:47;;;;;;;10.88;10.57;;;15.30;99.90;;;;;;5085214;28;20252;-79
2022/07/18 01:25:17;;;;;;;10.60;10.30;;;15.30;99.90;;;;;;5084534;28;20289;-79
2022/07/18 01:27:46;;;;;;;10.52;10.23;;;15.30;99.90;;;;;;5086870;28;20210;-79
2022/07/18 01:30:14;;;;;;;10.73;10.43;;;15.20;99.90;;;;;;5086988;28;20229;-80
2022/07/18 01:32:45;;;;;;;10.52;10.23;;;15.20;99.90;;;;;;5087291;28;20253;-80
2022/07/18 01:35:14;;;;;;;10.65;10.35;;;15.10;99.90;;;;;;5086156;28;20294;-79
2022/07/18 01:37:44;;;;;;;10.60;10.30;;;15.10;99.90;;;;;;5084708;28;20324;-82
2022/07/18 01:40:25;;;;;;;10.48;10.18;;;15.10;99.90;;;;;;5084013;28;20269;-80
2022/07/18 01:42:53;;;;;;;10.70;10.40;;;15.00;99.90;;;;;;5085307;28;20317;-80
2022/07/18 01:45:21;;;;;;;10.68;10.38;;;15.00;99.90;;;;;;5085315;28;20272;-80
2022/07/18 01:47:50;;;;;;;10.52;10.23;;;15.00;99.90;;;;;;5084781;28;20289;-79
2022/07/18 01:50:20;;;;;;;10.65;10.35;;;14.90;99.90;;;;;;5084401;28;20238;-80
2022/07/18 01:52:50;;;;;;;10.68;10.38;;;14.90;99.90;;;;;;5084948;28;20229;-79
2022/07/18 01:55:28;;;;;;;10.65;10.35;;;14.80;99.90;;;;;;5084812;28;20238;-80
2022/07/18 01:57:58;;;;;;;10.85;10.55;;;14.80;99.90;;;;;;5096414;28;20238;-80
2022/07/18 02:00:26;;;;;;;10.40;10.10;;;14.80;99.90;;;;;;5099131;28;20238;-80
2022/07/18 02:02:56;;;;;;;10.32;10.02;;;14.70;99.90;;;;;;5100470;28;20235;-80
2022/07/18 02:05:26;;;;;;;10.63;10.32;;;14.70;99.90;;;;;;5097756;28;20290;-80
2022/07/18 02:07:55;;;;;;;10.60;10.30;;;14.60;99.90;;;;;;5090662;28;20281;-82
2022/07/18 02:10:30;;;;;;;10.60;10.30;;;14.60;99.90;;;;;;5086748;28;20221;-81
2022/07/18 02:13:05;;;;;;;10.57;10.27;;;14.50;99.90;;;;;;5086266;28;20287;-81
2022/07/18 02:15:33;;;;;;;10.80;10.50;;;14.50;99.90;;;;;;5085425;28;20260;-82
2022/07/18 02:18:02;;;;;;;10.40;10.10;;;14.50;99.90;;;;;;5085349;28;20254;-81
2022/07/18 02:20:32;;;;;;;10.68;10.38;;;14.50;99.90;;;;;;5084438;28;20241;-81
2022/07/18 02:23:01;;;;;;;10.52;10.23;;;14.50;99.90;;;;;;5094845;28;20211;-79
2022/07/18 02:25:32;;;;;;;10.60;10.30;;;14.40;99.90;;;;;;5100770;28;20210;-79
2022/07/18 02:28:00;;;;;;;10.65;10.35;;;14.40;99.90;;;;;;5082398;28;20226;-81
2022/07/18 02:30:29;;;;;;;10.50;10.20;;;14.40;99.90;;;;;;5080294;28;20270;-79
2022/07/18 02:32:59;;;;;;;10.63;10.32;;;14.30;99.90;;;;;;5081028;28;20230;-81
2022/07/18 02:35:28;;;;;;;10.30;10.00;;;14.30;99.90;;;;;;5084773;28;20245;-81
2022/07/18 02:37:57;;;;;;;10.60;10.30;;;14.20;99.90;;;;;;5084926;28;20226;-81
2022/07/18 02:40:26;;;;;;;10.45;10.15;;;14.20;99.90;;;;;;5083884;28;20230;-81
2022/07/18 02:42:58;;;;;;;10.02;9.73;;;14.10;99.90;;;;;;5083948;28;20257;-80
2022/07/18 02:45:26;;;;;;;9.90;9.60;;;14.10;99.90;;;;;;5083233;28;20254;-81
2022/07/18 02:47:54;;;;;;;10.20;9.90;;;14.00;99.90;;;;;;5084921;28;20242;-82
2022/07/18 02:50:24;;;;;;;10.00;9.70;;;13.90;99.90;;;;;;5084792;28;20281;-81
2022/07/18 02:52:56;;;;;;;9.95;9.65;;;13.80;99.90;;;;;;5084728;28;20234;-82
2022/07/18 02:55:24;;;;;;;9.95;9.65;;;13.80;99.90;;;;;;5084348;28;20261;-81
2022/07/18 02:57:52;;;;;;;10.10;9.80;;;13.70;99.90;;;;;;5082645;28;20315;-81
2022/07/18 03:00:23;;;;;;;10.53;10.23;;;13.70;99.90;;;;;;5082794;28;20234;-82
2022/07/18 03:02:51;;;;;;;10.70;10.40;;;13.60;99.90;;;;;;5082515;28;20233;-81
2022/07/18 03:05:20;;;;;;;10.60;10.30;;;13.50;99.90;;;;;;5082679;28;20269;-80
2022/07/18 03:07:51;;;;;;;10.50;10.20;;;13.50;99.90;;;;;;5083011;28;20328;-81
2022/07/18 03:10:20;;;;;;;10.63;10.33;;;13.40;99.90;;;;;;5082329;28;20313;-81
2022/07/18 03:12:49;;;;;;;10.50;10.20;;;13.30;99.90;;;;;;5084067;28;20325;-81
2022/07/18 03:15:20;;;;;;;10.50;10.20;;;13.30;99.90;;;;;;5086548;28;20253;-80
2022/07/18 03:17:52;;;;;;;10.47;10.17;;;13.20;99.90;;;;;;5097134;28;20226;-79
2022/07/18 03:20:20;;;;;;;10.80;10.50;;;13.20;99.90;;;;;;5096623;28;20245;-80
2022/07/18 03:22:48;;;;;;;10.70;10.40;;;13.20;99.90;;;;;;5093158;28;20264;-81
2022/07/18 03:25:19;;;;;;;10.70;10.40;;;13.20;99.90;;;;;;5089661;28;20962;-81
2022/07/18 03:27:48;;;;;;;10.70;10.40;;;13.10;99.90;;;;;;5087294;28;20302;-81
2022/07/18 03:30:18;;;;;;;10.97;10.67;;;13.10;99.90;;;;;;5087498;28;20257;-82
2022/07/18 03:32:47;;;;;;;10.33;10.03;;;13.10;99.90;;;;;;5086572;28;20250;-82
2022/07/18 03:35:18;;;;;;;10.70;10.40;;;13.00;99.90;;;;;;5085916;28;20233;-81
2022/07/18 03:37:46;;;;;;;10.20;9.90;;;12.90;99.90;;;;;;5085960;28;20261;-81
2022/07/18 03:40:16;;;;;;;10.20;9.90;;;12.90;99.90;;;;;;5084521;28;20222;-81
2022/07/18 03:42:45;;;;;;;10.43;10.13;;;12.80;99.90;;;;;;5084637;28;20234;-80
2022/07/18 03:45:13;;;;;;;10.30;10.00;;;12.80;99.90;;;;;;5085317;28;20256;-81
2022/07/18 03:47:44;;;;;;;10.20;9.90;;;12.80;99.90;;;;;;5085862;28;20239;-80
2022/07/18 03:50:13;;;;;;;10.20;9.90;;;12.80;99.90;;;;;;5087100;28;20253;-81
2022/07/18 03:52:44;;;;;;;9.80;9.50;;;12.80;99.90;;;;;;5087097;28;20230;-81
2022/07/18 03:55:13;;;;;;;9.80;9.50;;;12.70;99.90;;;;;;5087337;28;20316;-81
2022/07/18 03:57:41;;;;;;;10.10;9.80;;;12.70;99.90;;;;;;5085898;28;20226;-81
2022/07/18 04:00:10;;;;;;;10.30;10.00;;;12.70;99.90;;;;;;5085955;28;20321;-81
2022/07/18 04:02:40;;;;;;;10.50;10.20;;;12.70;99.90;;;;;;5086689;28;20242;-80
2022/07/18 04:05:09;;;;;;;10.00;9.70;;;12.70;99.90;;;;;;5084583;28;20739;-80
2022/07/18 04:07:39;;;;;;;10.40;10.10;;;12.70;99.90;;;;;;5084268;28;20290;-81
2022/07/18 04:10:18;;;;;;;10.33;10.03;;;12.70;99.90;;;;;;5084828;28;20236;-80
2022/07/18 04:12:47;;;;;;;10.20;9.90;;;12.80;99.90;;;;;;5085862;28;20293;-82
2022/07/18 04:15:16;;;;;;;10.33;10.03;;;12.80;99.90;;;;;;5086380;28;20257;-81
2022/07/18 04:17:45;;;;;;;10.20;9.90;;;12.90;99.90;;;;;;5086259;28;20301;-80
2022/07/18 04:20:15;;;;;;;10.33;10.03;;;12.90;99.90;;;;;;5086860;28;20233;-81
2022/07/18 04:22:54;;;;;;;10.40;10.10;;;12.90;99.90;;;;;;5085949;28;20254;-81
2022/07/18 04:25:32;;;;;;;10.33;10.03;;;13.00;99.90;;;;;;5087896;28;20218;-81
2022/07/18 04:28:00;;;;;;;10.30;10.00;;;13.00;99.90;;;;;;5093157;28;20290;-80
2022/07/18 04:30:32;;;;;;;10.60;10.30;;;13.10;99.90;;;;;;5099118;28;20240;-80
2022/07/18 04:33:10;;;;;;;10.20;9.90;;;13.20;99.90;;;;;;5102636;28;20215;-80
2022/07/18 04:35:38;;;;;;;10.40;10.10;;;13.20;99.90;;;;;;5102053;28;20240;-79
2022/07/18 04:38:07;;;;;;;10.23;9.93;;;13.30;99.90;;;;;;5102275;28;20229;-79
2022/07/18 04:40:43;;;;;;;10.20;9.90;;;13.30;99.90;;;;;;5101680;28;20229;-79
2022/07/18 04:43:14;;;;;;;10.50;10.20;;;13.40;99.90;;;;;;5101879;28;20248;-78
2022/07/18 04:45:44;;;;;;;10.60;10.30;;;13.40;99.90;;;;;;5102193;28;20230;-80
2022/07/18 04:48:14;;;;;;;10.73;10.43;;;13.50;99.90;;;;;;5101367;28;20208;-80
2022/07/18 04:50:43;;;;;;;10.33;10.03;;;13.60;99.90;;;;;;5101286;28;20240;-81
2022/07/18 04:53:13;;;;;;;10.23;9.93;;;13.60;99.90;;;;;;5101298;28;20230;-80
2022/07/18 04:55:44;;;;;;;10.13;9.83;;;13.70;99.90;;;;;;5100708;28;20218;-81
2022/07/18 04:58:12;;;;;;;10.57;10.27;;;13.80;99.90;;;;;;5100652;28;20230;-79
2022/07/18 05:00:41;;;;;;;10.40;10.10;;;13.80;99.90;;;;;;5092859;28;20242;-81
2022/07/18 05:03:10;;;;;;;10.57;10.27;;;14.00;99.90;;;;;;5095924;28;20226;-81
2022/07/18 05:05:39;;;;;;;10.33;10.03;;;14.00;99.90;;;;;;5092802;28;20321;-82
2022/07/18 05:08:11;;;;;;;10.70;10.40;;;14.10;99.90;;;;;;5086622;28;20304;-81
2022/07/18 05:10:39;;;;;;;11.10;10.80;;;14.20;99.90;;;;;;5085880;28;20230;-81
2022/07/18 05:13:10;;;;;;;10.60;10.30;;;14.30;99.90;;;;;;5085662;28;20233;-81
2022/07/18 05:15:41;;;;;;;10.77;10.48;;;14.40;99.90;;;;;;5085538;28;20249;-82
2022/07/18 05:18:08;;;;;;;10.35;10.05;;;14.50;99.90;;;;;;5085050;28;20238;-81
2022/07/18 05:20:38;;;;;;;10.50;10.20;;;14.60;99.90;;;;;;5084742;28;20294;-81
2022/07/18 05:23:08;;;;;;;11.00;10.70;;;14.70;99.90;;;;;;5084981;28;20258;-81
2022/07/18 05:25:38;;;;;;;10.63;10.32;;;14.90;99.90;;;;;;5084856;28;20270;-80
2022/07/18 05:28:09;;;;;;;10.98;10.68;;;15.00;99.90;;;;;;5093429;28;20218;-79
2022/07/18 05:30:37;;;;;;;10.82;10.52;;;15.20;99.90;;;;;;5100568;28;20223;-79
2022/07/18 05:33:05;;;;;;;10.85;10.55;;;15.30;99.90;;;;;;5101014;28;20244;-80
2022/07/18 05:35:35;;;;;;;10.73;10.43;;;15.40;99.90;;;;;;5098516;28;20226;-82
2022/07/18 05:38:04;;;;;;;10.82;10.52;;;15.50;99.90;;;;;;5089527;28;20234;-82
2022/07/18 05:40:34;;;;;;;10.88;10.57;;;15.70;99.90;;;;;;5086570;28;20226;-80
2022/07/18 05:43:04;;;;;;;10.77;10.48;;;15.80;99.90;;;;;;5086699;28;20254;-82
2022/07/18 05:45:36;;;;;;;10.77;10.48;;;16.00;99.90;;;;;;5086107;28;20297;-80
2022/07/18 05:48:04;;;;;;;10.90;10.60;;;16.20;99.90;;;;;;5086187;28;20235;-80
2022/07/18 05:50:41;;;;;;;10.95;10.65;;;16.30;99.90;;;;;;5086530;28;20230;-80
2022/07/18 05:53:11;;;;;;;10.80;10.50;;;16.50;99.90;;;;;;5085554;28;20268;-80
2022/07/18 05:55:39;;;;;;;10.43;10.13;;;16.60;99.90;;;;;;5084842;28;20230;-80
2022/07/18 05:58:10;;;;;;;10.70;10.40;;;16.70;99.90;;;;;;5084993;28;20245;-80
2022/07/18 06:00:40;;;;;;;10.93;10.63;;;16.80;99.90;;;;;;5084362;28;20230;-80
2022/07/18 06:03:08;;;;;;;11.10;10.80;;;16.90;99.90;;;;;;5085231;28;20298;-80
2022/07/18 06:05:39;;;;;;;10.90;10.60;;;17.10;99.90;;;;;;5085307;28;20234;-80
2022/07/18 06:08:12;;;;;;;11.23;10.93;;;17.20;99.90;;;;;;5085475;28;20237;-80
2022/07/18 06:10:42;;;;;;;10.80;10.50;;;17.30;99.90;;;;;;5084885;28;20277;-80
2022/07/18 06:13:16;;;;;;;10.85;10.55;;;17.40;99.90;;;;;;5084644;28;20232;-81
2022/07/18 06:15:54;;;;;;;11.15;10.85;;;17.60;99.90;;;;;;5083953;28;20252;-81
2022/07/18 06:18:22;;;;;;;11.00;10.70;;;17.70;99.90;;;;;;5084394;28;20361;-80
2022/07/18 06:20:51;;;;;;;11.20;10.90;;;17.80;99.90;;;;;;5084889;28;20765;-80
2022/07/18 06:23:20;;;;;;;11.20;10.90;;;18.00;99.90;;;;;;5084698;28;20333;-79
2022/07/18 06:25:48;;;;;;;11.63;11.23;;;18.20;99.90;;;;;;5084293;28;20252;-81
2022/07/18 06:28:19;;;;;;;11.10;10.80;;;18.30;99.90;;;;;;5084623;28;20242;-80
2022/07/18 06:30:56;;;;;;;11.25;10.88;;;18.40;99.90;;;;;;5084366;28;20266;-81
2022/07/18 06:33:47;;;;;;;11.20;10.90;;;18.50;99.90;;;;;;5084552;28;20280;-81
2022/07/18 06:36:59;;;;;;;11.30;10.90;;;18.70;99.90;;;;;;5085171;28;20226;-82
2022/07/18 06:39:27;;;;;;;10.80;10.50;;;18.80;99.90;;;;;;5020820;28;20296;-81
2022/07/18 06:41:56;;;;;;;10.98;10.68;;;19.00;99.90;;;;;;5083977;28;20230;-79
2022/07/18 06:44:27;;;;;;;11.10;10.80;;;19.10;99.90;;;;;;5083021;28;20230;-80
2022/07/18 06:47:05;;;;;;;10.90;10.60;;;19.20;99.90;;;;;;5084712;28;20222;-81
2022/07/18 06:49:33;;;;;;;10.90;10.60;;;19.40;99.90;;;;;;5083586;28;20284;-80
2022/07/18 06:52:04;;;;;;;10.70;10.40;;;19.50;99.90;;;;;;5084349;28;20261;-79
2022/07/18 06:54:35;;;;;;;10.50;10.20;;;19.60;99.90;;;;;;5090842;28;20226;-81
2022/07/18 06:57:06;;;;;;;10.50;10.20;;;19.80;99.90;;;;;;5088385;28;20321;-80
2022/07/18 06:59:34;;;;;;;10.38;10.07;;;20.00;99.90;;;;;;5086373;28;20264;-81
2022/07/18 07:02:03;;;;;;;10.60;10.30;;;20.20;99.90;;;;;;5085941;28;20225;-80
2022/07/18 07:04:31;;;;;;;10.70;10.40;;;20.40;99.90;;;;;;5085553;28;20277;-81
2022/07/18 07:07:00;;;;;;;10.20;9.90;;;20.40;99.90;;;;;;5084588;28;20230;-80
2022/07/18 07:09:29;;;;;;;10.18;9.88;;;20.60;99.90;;;;;;5084013;28;20250;-80
2022/07/18 07:11:58;;;;;;;10.40;10.10;;;20.80;99.90;;;;;;5084051;28;20286;-81
2022/07/18 07:14:30;;;;;;;10.40;10.10;;;20.90;99.90;;;;;;5083363;28;20230;-81
2022/07/18 07:16:59;;;;;;;10.13;9.82;;;21.00;99.90;;;;;;5082796;28;20269;-80
2022/07/18 07:19:28;;;;;;;10.30;10.00;;;21.20;99.90;;;;;;5103097;22;20230;-83
2022/07/18 07:21:56;;;;;;;10.05;9.75;;;21.40;99.90;;;;;;5080745;28;20238;-83
2022/07/18 07:24:24;;;;;;;10.38;10.07;;;21.60;99.90;;;;;;5080021;28;20232;-84
2022/07/18 07:26:52;;;;;;;10.00;9.70;;;21.70;99.90;;;;;;5081273;28;20293;-83
2022/07/18 07:29:19;;;;;;;9.85;9.55;;;21.90;99.90;;;;;;5080435;28;20227;-84
2022/07/18 07:31:47;;;;;;;10.10;9.80;;;22.00;99.90;;;;;;5080294;28;20241;-83
2022/07/18 07:34:15;;;;;;;10.10;9.80;;;22.10;99.90;;;;;;5080125;28;20289;-84
2022/07/18 07:36:44;;;;;;;10.27;9.98;;;22.30;99.90;;;;;;5079603;28;20234;-84
2022/07/18 07:39:11;;;;;;;10.52;10.23;;;22.20;99.90;;;;;;5080030;28;20252;-81
2022/07/18 07:41:39;;;;;;;10.70;10.40;;;22.40;99.90;;;;;;5079441;28;20257;-83
2022/07/18 07:44:06;;;;;;;10.35;10.05;;;22.50;99.90;;;;;;5079143;28;20226;-83
2022/07/18 07:46:34;;;;;;;10.48;10.18;;;22.60;99.90;;;;;;5079544;28;20254;-83
2022/07/18 07:49:02;;;;;;;10.80;10.50;;;22.70;99.90;;;;;;5079319;28;20234;-83
2022/07/18 07:51:29;;;;;;;10.77;10.48;;;22.80;99.90;;;;;;5079653;28;20226;-82
2022/07/18 07:53:58;;;;;;;10.55;10.25;;;22.90;99.90;;;;;;5080284;28;20332;-82
2022/07/18 07:56:26;;;;;;;10.40;10.10;;;22.90;99.90;;;;;;5079997;28;20234;-82
2022/07/18 07:58:53;;;;;;;10.70;10.40;;;22.90;99.90;;;;;;5078466;28;20291;-82
2022/07/18 08:01:21;;;;;;;10.50;10.20;;;23.00;99.90;;;;;;5078474;28;20234;-82
2022/07/18 08:03:49;;;;;;;10.55;10.25;;;23.20;99.90;;;;;;5079020;28;20230;-82
2022/07/18 08:06:17;;;;;;;9.95;9.65;;;23.50;99.90;;;;;;5084892;28;20230;-82
2022/07/18 08:08:44;;;;;;;10.20;9.90;;;23.60;99.90;;;;;;5085706;28;20248;-82
2022/07/18 08:11:14;;;;;;;9.80;9.50;;;23.90;99.90;;;;;;5079940;28;20241;-83
2022/07/18 08:13:42;;;;;;;9.73;9.43;;;24.10;99.90;;;;;;5079603;28;20229;-83
2022/07/18 08:16:09;;;;;;;9.75;9.45;;;24.30;99.90;;;;;;5079673;28;20251;-82
2022/07/18 08:18:37;;;;;;;9.77;9.48;;;24.40;99.90;;;;;;5080663;28;20234;-83
2022/07/18 08:21:04;;;;;;;10.10;9.80;;;24.50;99.90;;;;;;5078965;28;20286;-83
2022/07/18 08:23:32;;;;;;;10.10;9.80;;;24.60;99.90;;;;;;5079578;28;20234;-83
2022/07/18 08:26:00;;;;;;;10.13;9.82;;;24.60;99.90;;;;;;5079002;28;20302;-83
2022/07/18 08:28:29;;;;;;;10.75;10.45;;;24.80;99.90;;;;;;5078798;28;20230;-83
2022/07/18 08:30:56;;;;;;;10.73;10.43;;;25.00;99.90;;;;;;5078689;28;20270;-83
2022/07/18 08:33:24;;;;;;;11.07;10.77;;;25.10;99.90;;;;;;5077938;28;20254;-82
2022/07/18 08:35:51;;;;;;;10.80;10.50;;;25.30;99.90;;;;;;5081114;28;20253;-83
2022/07/18 08:38:19;;;;;;;10.80;10.50;;;25.60;99.90;;;;;;5081289;28;20257;-83
2022/07/18 08:40:49;;;;;;;10.50;10.20;;;25.80;99.90;;;;;;5080997;28;20236;-83
2022/07/18 08:43:17;;;;;;;10.65;10.35;;;26.00;99.90;;;;;;5081571;28;20357;-83
2022/07/18 08:45:47;;;;;;;10.82;10.52;;;26.20;99.90;;;;;;5081285;28;20258;-83
2022/07/18 08:48:16;;;;;;;10.95;10.65;;;26.50;99.90;;;;;;5081162;28;20324;-83
2022/07/18 08:50:45;;;;;;;10.57;10.27;;;26.60;99.90;;;;;;5080612;28;20246;-83
2022/07/18 08:53:14;;;;;;;10.75;10.45;;;26.50;99.90;;;;;;5080950;28;20230;-83
2022/07/18 08:55:41;;;;;;;11.02;10.73;;;26.40;99.90;;;;;;5080545;28;20234;-83
2022/07/18 08:58:09;;;;;;;11.10;10.80;;;26.80;99.90;;;;;;5080317;28;20269;-83
2022/07/18 09:00:37;;;;;;;11.30;11.00;;;27.10;99.90;;;;;;5080944;28;20298;-83
2022/07/18 09:03:06;;;;;;;11.20;10.90;;;27.50;99.90;;;;;;5081614;28;20233;-83
2022/07/18 09:05:34;;;;;;;11.10;10.80;;;27.70;99.90;;;;;;5081087;28;20272;-83
2022/07/18 09:08:15;;;;;;;11.20;10.90;;;27.60;99.90;;;;;;5081520;28;20256;-83
2022/07/18 09:10:50;;;;;;;11.00;10.70;;;27.50;99.70;;;;;;5081543;28;20328;-83
2022/07/18 09:13:18;;;;;;;11.10;10.80;;;27.60;99.90;;;;;;5081791;28;20225;-83
2022/07/18 09:16:01;;;;;;;11.07;10.77;;;28.10;99.90;;;;;;5081491;28;20236;-83
2022/07/18 09:18:32;;;;;;;11.18;10.88;;;28.40;99.40;;;;;;5080819;28;20244;-83
2022/07/18 09:21:03;;;;;;;11.20;10.90;;;28.70;99.90;;;;;;5081089;28;20293;-83
2022/07/18 09:23:33;;;;;;;11.15;10.85;;;28.70;99.70;;;;;;5081349;28;20234;-83
2022/07/18 09:26:02;;;;;;;10.88;10.57;;;28.60;99.40;;;;;;5080864;28;20234;-83
2022/07/18 09:28:31;;;;;;;10.93;10.63;;;28.80;99.30;;;;;;5081111;28;20264;-84
2022/07/18 09:30:59;;;;;;;11.00;10.70;;;29.10;98.50;;;;;;5080638;28;20322;-83
2022/07/18 09:33:27;;;;;;;11.20;10.90;;;29.30;98.20;;;;;;5081916;28;20249;-84
2022/07/18 09:35:57;;;;;;;11.02;10.73;;;29.70;96.20;;;;;;5087879;28;20245;-83
2022/07/18 09:38:31;;;;;;;11.10;10.80;;;29.90;95.20;;;;;;5088461;28;20229;-83
2022/07/18 09:40:58;;;;;;;11.10;10.80;;;30.50;94.50;;;;;;5083803;28;20248;-83
2022/07/18 09:43:28;;;;;;;11.45;11.10;;;30.40;93.10;;;;;;5082328;28;20264;-83
2022/07/18 09:45:57;;;;;;;11.00;10.70;;;30.70;92.30;;;;;;5082740;28;20367;-83
2022/07/18 09:48:26;;;;;;;10.85;10.55;;;30.90;92.20;;;;;;5081731;28;20349;-83
2022/07/18 09:50:59;;;;;;;10.95;10.65;;;31.30;90.40;;;;;;5081759;28;20241;-84
2022/07/18 09:53:28;;;;;;;10.98;10.68;;;31.50;90.90;;;;;;5081917;28;20241;-84
2022/07/18 09:56:02;;;;;;;10.70;10.40;;;30.90;89.40;;;;;;5091823;28;20623;-84
2022/07/18 09:58:32;;;;;;;10.63;10.32;;;30.90;89.40;;;;;;5082607;28;20313;-84
2022/07/18 10:01:02;;;;;;;10.85;10.55;;;31.40;89.40;;;;;;5082072;28;20231;-83
2022/07/18 10:03:30;;;;;;;10.95;10.65;;;31.90;87.50;;;;;;5081490;28;20246;-83
2022/07/18 10:06:01;;;;;;;10.90;10.60;;;32.30;85.40;;;;;;5082142;28;20303;-83
2022/07/18 10:08:31;;;;;;;11.13;10.82;;;31.90;85.90;;;;;;5082052;28;20241;-84
2022/07/18 10:11:01;;;;;;;10.88;10.57;;;31.90;83.10;;;;;;5081723;28;20242;-83
2022/07/18 10:13:30;;;;;;;11.38;11.07;;;32.30;87.30;;;;;;5082325;28;20265;-84
2022/07/18 10:15:59;;;;;;;11.20;10.90;;;32.50;85.60;;;;;;5082261;28;20226;-83
2022/07/18 10:18:29;;;;;;;10.93;10.63;;;32.70;84.70;;;;;;5081342;28;20226;-84
2022/07/18 10:21:06;;;;;;;10.70;10.40;;;32.60;82.70;;;;;;5080174;28;20237;-84
2022/07/18 10:23:36;;;;;;;10.80;10.50;;;32.50;85.00;;;;;;5080376;28;20329;-84
2022/07/18 10:26:18;;;;;;;10.80;10.50;;;32.80;82.70;;;;;;5081167;28;20267;-84
2022/07/18 10:29:16;;;;;;;10.80;10.50;;;32.90;81.80;;;;;;5082650;28;20230;-83
2022/07/18 10:32:04;;;;;;;10.77;10.48;;;33.10;80.60;;;;;;5081647;28;20301;-84
2022/07/18 10:34:35;;;;;;;10.80;10.50;;;32.80;80.60;;;;;;5081224;28;20229;-84
2022/07/18 10:37:12;;;;;;;10.63;10.32;;;32.80;79.70;;;;;;5081860;28;20244;-84
2022/07/18 10:39:42;;;;;;;11.00;10.70;;;32.90;79.40;;;;;;5081535;28;20323;-84
2022/07/18 10:42:24;;;;;;;10.95;10.65;;;32.70;79.30;;;;;;5081560;28;20214;-84
2022/07/18 10:44:52;;;;;;;10.82;10.52;;;33.00;78.90;;;;;;5081359;28;20236;-84
2022/07/18 10:47:23;;;;;;;11.00;10.70;;;32.90;80.10;;;;;;5081947;28;20234;-84
2022/07/18 10:50:09;;;;;;;10.90;10.60;;;33.10;79.50;;;;;;5081887;28;20258;-84
2022/07/18 10:53:00;;;;;;;10.55;10.25;;;33.70;77.40;;;;;;5082032;28;20230;-84
2022/07/18 10:55:35;;;;;;;10.60;10.30;;;33.90;79.40;;;;;;5081615;28;20236;-84
2022/07/18 10:58:22;;;;;;;10.70;10.40;;;33.90;78.60;;;;;;5080018;28;20237;-84
2022/07/18 11:01:01;;;;;;;10.70;10.40;;;34.10;78.50;;;;;;5081206;28;20726;-84
2022/07/18 11:03:30;;;;;;;10.60;10.30;;;34.30;79.90;;;;;;5080156;28;20275;-84
2022/07/18 11:05:58;;;;;;;10.70;10.40;;;34.20;78.20;;;;;;5080858;28;20249;-84
2022/07/18 11:08:33;;;;;;;11.30;11.00;;;34.10;77.90;;;;;;5081276;28;20242;-83
2022/07/18 11:11:14;;;;;;;10.98;10.68;;;33.80;78.80;;;;;;5080943;28;20247;-84
2022/07/18 11:13:50;;;;;;;10.90;10.60;;;33.40;77.70;;;;;;5081860;28;20306;-84
2022/07/18 11:16:25;;;;;;;11.07;10.77;;;33.60;78.20;;;;;;5080492;28;20226;-84
2022/07/18 11:19:30;;;;;;;10.90;10.60;;;34.10;79.60;;;;;;5081000;28;20242;-84
2022/07/18 11:21:59;;;;;;;10.70;10.40;;;34.10;76.10;;;;;;5081861;28;20245;-84
2022/07/18 11:24:30;;;;;;;10.60;10.30;;;34.40;78.40;;;;;;5081128;28;20230;-84
2022/07/18 11:26:58;;;;;;;10.80;10.50;;;34.40;77.20;;;;;;5080709;28;20233;-83
2022/07/18 11:29:26;;;;;;;10.50;10.20;;;34.50;77.50;;;;;;5081432;28;20252;-83
2022/07/18 11:31:57;;;;;;;10.90;10.60;;;34.20;77.30;;;;;;5080496;28;20289;-84
2022/07/18 11:34:27;;;;;;;10.90;10.60;;;33.50;75.80;;;;;;5080544;28;20218;-84
2022/07/18 11:36:54;;;;;;;10.93;10.63;;;33.60;76.30;;;;;;5081925;28;20320;-84
2022/07/18 11:39:32;;;;;;;10.80;10.50;;;34.00;78.00;;;;;;5080951;28;20234;-84
2022/07/18 11:42:01;;;;;;;10.90;10.60;;;33.90;75.70;;;;;;5084331;28;20225;-84
2022/07/18 11:44:31;;;;;;;10.90;10.60;;;34.10;77.70;;;;;;5089690;28;20300;-84
2022/07/18 11:47:07;;;;;;;11.00;10.70;;;34.70;75.70;;;;;;5084607;28;20234;-84
2022/07/18 11:49:35;;;;;;;11.20;10.90;;;35.10;78.00;;;;;;5085023;28;20226;-83
2022/07/18 11:52:03;;;;;;;10.90;10.60;;;35.50;76.40;;;;;;5087343;28;20230;-84
2022/07/18 11:54:33;;;;;;;11.07;10.77;;;35.60;77.20;;;;;;5087098;28;20241;-84
2022/07/18 11:57:01;;;;;;;11.30;11.00;;;35.80;76.10;;;;;;5095099;28;20242;-84
2022/07/18 11:59:38;;;;;;;11.20;10.90;;;35.80;77.90;;;;;;5097896;28;20253;-83
2022/07/18 12:02:06;;;;;;;11.23;10.93;;;35.90;74.20;;;;;;5098296;28;20237;-83
2022/07/18 12:04:33;;;;;;;11.55;11.25;;;35.80;75.20;;;;;;5094057;28;20233;-83
2022/07/18 12:07:19;;;;;;;11.48;11.18;;;35.90;75.40;;;;;;5095585;28;20265;-84
2022/07/18 12:09:49;;;;;;;11.52;11.23;;;36.10;74.30;;;;;;5099900;28;20241;-84
2022/07/18 12:12:20;;;;;;;11.50;11.20;;;36.30;73.70;;;;;;5101646;28;20235;-84
2022/07/18 12:14:58;;;;;;;11.52;11.23;;;36.00;71.80;;;;;;5101830;28;20285;-84
2022/07/18 12:17:26;;;;;;;11.48;11.18;;;35.80;75.40;;;;;;5101519;28;20249;-83
2022/07/18 12:20:11;;;;;;;11.50;11.20;;;36.20;72.10;;;;;;5100589;28;20260;-83
2022/07/18 12:23:08;;;;;;;11.43;11.13;;;36.10;73.00;;;;;;5094664;28;20294;-83
2022/07/18 12:25:44;;;;;;;11.38;11.07;;;36.00;70.60;;;;;;5099257;28;20227;-84
2022/07/18 12:28:17;;;;;;;11.45;11.15;;;36.20;72.20;;;;;;5099205;28;20230;-84
2022/07/18 12:30:45;;;;;;;11.30;11.00;;;36.50;73.00;;;;;;5089490;28;20277;-84
2022/07/18 12:33:13;;;;;;;11.05;10.75;;;36.70;72.70;;;;;;5084319;28;20278;-84
2022/07/18 12:35:40;;;;;;;11.10;10.80;;;36.70;70.40;;;;;;5082809;28;20281;-84
2022/07/18 12:38:11;;;;;;;10.73;10.43;;;36.60;71.80;;;;;;5083382;28;20241;-83
2022/07/18 12:40:47;;;;;;;10.68;10.38;;;36.90;71.80;;;;;;5083457;28;20301;-83
2022/07/18 12:43:17;;;;;;;10.63;10.32;;;37.20;71.20;;;;;;5082335;28;20328;-83
2022/07/18 12:45:45;;;;;;;10.90;10.60;;;37.20;71.00;;;;;;5082623;28;20238;-83
2022/07/18 12:48:13;;;;;;;10.90;10.60;;;37.50;70.90;;;;;;5082814;28;20257;-84